Terminal Aerodrome Forecast
Issued by NWS Grand Forks, ND

Home | Current Version | Previous Version | Text Only | Print | Product List | Glossary On
Versions: 1 2 3 4 5 6 7 8 9 10 11 12 13 14 15 16 17 18
000
FTUS43 KFGF 191300 AAA
TAFGFK
TAF AMD
KGFK 191335Z 1914/2012 17014KT P6SM VCSH OVC120
     FM191600 22013KT P6SM BKN080
     FM192300 30015G23KT P6SM BKN120=

USA.gov is the U.S. government's official web portal to all federal, state and local government web resources and services.